createdAt,value
2019-04-22T00:00:10.820Z,49.38
2019-04-22T00:01:16.497Z,48.97
2019-04-22T00:02:13.244Z,49.16
2019-04-22T00:03:14.211Z,48.61
2019-04-22T00:04:16.265Z,49.00
2019-04-22T00:05:18.906Z,48.80
2019-04-22T00:06:30.797Z,48.61
2019-04-22T00:07:36.233Z,49.00
2019-04-22T00:08:37.255Z,49.38
2019-04-22T00:09:38.846Z,49.93
2019-04-22T00:10:43.708Z,49.64
2019-04-22T00:11:35.493Z,49.93
2019-04-22T00:13:40.785Z,50.31
2019-04-22T00:14:28.315Z,50.12
2019-04-22T00:15:32.641Z,49.93
2019-04-22T00:16:38.817Z,50.21
2019-04-22T00:17:48.297Z,50.70
2019-04-22T00:18:50.553Z,51.17
2019-04-22T00:19:38.986Z,51.07
2019-04-22T00:20:35.408Z,51.07
2019-04-22T00:21:42.022Z,52.10
2019-04-22T00:22:32.047Z,51.91
2019-04-22T00:23:37.717Z,52.87
2019-04-22T00:24:39.128Z,52.87
2019-04-22T00:25:43.903Z,53.06
2019-04-22T00:26:39.320Z,53.34
2019-04-22T00:28:39.329Z,53.63
2019-04-22T00:29:49.882Z,54.21
2019-04-22T00:30:37.338Z,54.21
2019-04-22T00:31:38.162Z,54.21
2019-04-22T00:32:32.027Z,54.02
2019-04-22T00:33:31.349Z,53.92
2019-04-22T00:34:35.650Z,54.68
2019-04-22T00:35:35.449Z,54.49
2019-04-22T00:36:35.230Z,53.34
2019-04-22T00:37:34.745Z,52.13
2019-04-22T00:38:38.308Z,52.03
2019-04-22T00:39:51.291Z,51.81
2019-04-22T00:41:35.807Z,53.53
2019-04-22T00:42:39.178Z,53.44
2019-04-22T00:43:39.562Z,52.87
2019-04-22T00:44:43.271Z,52.77
2019-04-22T00:45:41.812Z,52.67
2019-04-22T00:46:39.674Z,52.67
2019-04-22T00:47:41.483Z,52.96
2019-04-22T00:48:32.239Z,52.99
2019-04-22T00:50:44.355Z,52.22
2019-04-22T00:51:44.828Z,52.58
2019-04-22T00:52:37.166Z,52.87
2019-04-22T00:53:36.015Z,52.96
2019-04-22T00:54:37.427Z,53.53
2019-04-22T00:55:38.112Z,54.30
2019-04-22T00:56:33.524Z,55.23
2019-04-22T00:57:35.508Z,54.21
2019-04-22T00:58:37.852Z,54.68
2019-04-22T00:59:40.436Z,54.68
2019-04-22T01:00:40.618Z,54.97
2019-04-22T01:01:37.237Z,55.07
2019-04-22T01:02:44.538Z,55.23
2019-04-22T01:03:44.822Z,56.09
2019-04-22T01:04:40.670Z,55.99
2019-04-22T01:05:38.355Z,55.90
2019-04-22T01:06:33.305Z,56.57
2019-04-22T01:07:36.933Z,56.67
2019-04-22T01:08:40.469Z,57.59
2019-04-22T01:09:38.932Z,57.50
2019-04-22T01:10:42.097Z,58.26
2019-04-22T01:11:33.489Z,58.51
2019-04-22T01:12:31.952Z,58.33
2019-04-22T01:13:30.549Z,59.19
2019-04-22T01:14:34.288Z,58.45
2019-04-22T01:15:41.963Z,57.14
2019-04-22T01:16:35.657Z,56.35
2019-04-22T01:17:36.934Z,56.54
2019-04-22T01:20:25.768Z,56.82
2019-04-22T01:21:17.778Z,56.85
2019-04-22T01:22:06.705Z,55.99
2019-04-22T01:23:05.271Z,55.80
2019-04-22T01:24:05.976Z,55.80
2019-04-22T01:25:01.938Z,57.02
2019-04-22T01:26:01.071Z,58.07
2019-04-22T01:26:57.851Z,58.14
2019-04-22T01:27:57.175Z,58.16
2019-04-22T01:28:59.553Z,57.11
2019-04-22T01:29:58.695Z,57.31
2019-04-22T01:30:51.462Z,56.06
2019-04-22T01:31:45.513Z,55.80
2019-04-22T01:32:47.246Z,56.73
2019-04-22T01:33:49.665Z,58.07
2019-04-22T01:35:00.607Z,58.07
2019-04-22T01:36:01.483Z,57.40
2019-04-22T01:37:02.972Z,57.68
2019-04-22T01:37:59.986Z,58.16
2019-04-22T01:39:06.444Z,58.33
2019-04-22T01:40:14.862Z,58.70
2019-04-22T01:41:07.156Z,58.80
2019-04-22T01:42:05.973Z,58.61
2019-04-22T01:43:07.030Z,59.09
2019-04-22T01:44:16.523Z,59.38
2019-04-22T01:45:12.429Z,59.76
2019-04-22T01:46:09.818Z,58.99
2019-04-22T01:47:10.102Z,59.56
2019-04-22T01:48:15.531Z,59.53
2019-04-22T01:49:10.363Z,59.34
2019-04-22T01:50:10.088Z,59.63
2019-04-22T01:51:02.122Z,59.09
2019-04-22T01:52:12.743Z,59.38
2019-04-22T01:54:12.942Z,62.40
2019-04-22T01:56:12.280Z,61.25
2019-04-22T01:57:03.676Z,61.73
2019-04-22T01:58:08.565Z,62.30
2019-04-22T01:58:59.052Z,63.35
2019-04-22T02:00:00.452Z,63.73
2019-04-22T02:01:09.797Z,63.99
2019-04-22T02:02:10.561Z,63.60
2019-04-22T02:03:12.825Z,63.89
2019-04-22T02:04:08.875Z,65.42
2019-04-22T02:05:16.064Z,63.80
2019-04-22T02:06:07.545Z,63.51
2019-04-22T02:07:09.354Z,63.99
2019-04-22T02:08:15.351Z,63.70
2019-04-22T02:09:17.411Z,63.23
2019-04-22T02:10:12.244Z,63.20
2019-04-22T02:11:07.746Z,61.99
2019-04-22T02:13:09.189Z,58.68
2019-04-22T02:14:11.564Z,58.48
2019-04-22T02:15:12.037Z,57.65
2019-04-22T02:16:15.170Z,55.75
2019-04-22T02:17:10.884Z,55.46
2019-04-22T02:18:18.038Z,55.18
2019-04-22T02:19:13.168Z,55.18
2019-04-22T02:20:27.013Z,56.70
2019-04-22T02:21:10.631Z,58.11
2019-04-22T02:22:11.593Z,58.48
2019-04-22T02:23:30.565Z,59.63
2019-04-22T02:24:13.927Z,60.78
2019-04-22T02:25:08.474Z,60.68
2019-04-22T02:26:25.539Z,61.51
2019-04-22T02:27:10.717Z,62.94
2019-04-22T02:28:16.793Z,63.99
2019-04-22T02:29:10.511Z,64.62
2019-04-22T02:30:05.463Z,64.94
2019-04-22T02:32:19.646Z,65.33
2019-04-22T02:33:46.299Z,65.58
2019-04-22T02:35:45.922Z,65.77
2019-04-22T02:36:30.381Z,65.86
2019-04-22T02:37:13.581Z,65.96
2019-04-22T02:38:20.015Z,66.15
2019-04-22T02:39:15.779Z,66.40
2019-04-22T02:40:09.231Z,65.77
2019-04-22T02:41:22.885Z,65.58
2019-04-22T02:43:28.714Z,65.48
2019-04-22T02:45:07.637Z,65.39
2019-04-22T02:47:18.388Z,66.05
2019-04-22T02:48:30.179Z,65.77
2019-04-22T02:50:08.878Z,66.53
2019-04-22T02:51:16.447Z,66.50
2019-04-22T02:52:20.319Z,66.05
2019-04-22T02:53:17.526Z,65.00
2019-04-22T02:54:36.453Z,66.15
2019-04-22T02:55:45.993Z,67.45
2019-04-22T02:56:27.262Z,67.74
2019-04-22T02:57:25.154Z,67.45
2019-04-22T02:58:12.662Z,67.55
2019-04-22T03:00:35.801Z,67.07
2019-04-22T03:01:23.487Z,68.12
2019-04-22T03:02:13.712Z,68.59
2019-04-22T03:03:28.064Z,69.17
2019-04-22T03:05:19.456Z,69.10
2019-04-22T03:07:12.726Z,68.34
2019-04-22T03:08:14.871Z,68.24
2019-04-22T03:12:21.549Z,66.88
2019-04-22T03:13:23.397Z,68.59
2019-04-22T03:15:07.735Z,66.88
2019-04-22T03:17:15.912Z,66.50
2019-04-22T03:18:22.078Z,66.40
2019-04-22T03:20:11.041Z,66.11
2019-04-22T03:21:14.644Z,66.21
2019-04-22T03:25:42.380Z,66.88
2019-04-22T03:26:18.465Z,66.69
2019-04-22T03:27:16.310Z,66.31
2019-04-22T03:28:09.686Z,66.50
2019-04-22T03:29:37.204Z,66.59
2019-04-22T03:30:41.607Z,67.16
2019-04-22T03:31:26.153Z,67.64
2019-04-22T03:32:40.674Z,68.59
2019-04-22T03:36:42.175Z,66.02
2019-04-22T03:37:27.442Z,66.31
2019-04-22T03:38:20.240Z,65.45
2019-04-22T03:41:27.193Z,64.02
2019-04-22T03:43:33.757Z,65.36
2019-04-22T03:46:28.232Z,67.74
2019-04-22T03:49:29.008Z,70.02
2019-04-22T03:50:22.691Z,69.74
2019-04-22T03:51:27.643Z,69.64
2019-04-22T03:52:16.258Z,69.74
2019-04-22T03:53:21.237Z,69.83
2019-04-22T03:54:29.041Z,70.40
2019-04-22T03:55:18.110Z,70.21
2019-04-22T03:56:36.562Z,70.31
2019-04-22T03:58:01.804Z,70.21
2019-04-22T03:59:26.869Z,70.40
2019-04-22T04:00:32.591Z,70.12
2019-04-22T04:01:30.574Z,70.31
2019-04-22T04:02:30.779Z,70.59
2019-04-22T04:03:12.072Z,70.97
2019-04-22T04:04:32.634Z,70.97
2019-04-22T04:06:20.752Z,72.27
2019-04-22T04:27:43.727Z,73.22
2019-04-22T04:29:49.206Z,73.38
2019-04-22T04:33:35.984Z,73.38
2019-04-22T04:34:47.221Z,74.14
2019-04-22T04:36:35.633Z,72.14
2019-04-22T04:37:42.601Z,71.22
2019-04-22T04:38:28.922Z,73.00
2019-04-22T04:41:48.232Z,70.56
2019-04-22T04:43:26.294Z,68.69
2019-04-22T04:44:48.905Z,67.07
2019-04-22T04:45:38.537Z,66.69
2019-04-22T04:46:39.980Z,67.07
2019-04-22T04:47:43.992Z,66.97
2019-04-22T04:48:32.897Z,67.35
2019-04-22T04:50:25.212Z,66.24
2019-04-22T04:51:32.854Z,65.86
2019-04-22T04:52:39.075Z,65.20
2019-04-22T04:54:30.248Z,64.81
2019-04-22T04:55:35.065Z,64.43
2019-04-22T04:56:36.278Z,64.05
2019-04-22T04:57:40.992Z,64.24
2019-04-22T04:58:36.702Z,63.96
2019-04-22T04:59:38.404Z,63.67
2019-04-22T05:01:36.054Z,64.15
2019-04-22T05:02:39.982Z,63.96
2019-04-22T05:03:39.959Z,64.81
2019-04-22T05:05:28.813Z,64.62
2019-04-22T05:06:49.102Z,63.96
2019-04-22T05:08:40.635Z,63.42
2019-04-22T05:11:40.690Z,63.23
2019-04-22T05:13:32.912Z,62.65
2019-04-22T05:14:24.539Z,62.65
2019-04-22T05:15:24.480Z,62.11
2019-04-22T05:17:27.593Z,60.71
2019-04-22T05:18:33.066Z,59.85
2019-04-22T05:19:25.719Z,58.86
2019-04-22T05:22:21.103Z,53.47
2019-04-22T05:23:31.999Z,52.01
2019-04-22T05:24:28.473Z,49.10
2019-04-22T05:25:25.463Z,47.41
2019-04-22T05:26:27.695Z,44.46
2019-04-22T05:27:28.074Z,43.23
2019-04-22T05:28:23.979Z,42.85
2019-04-22T05:29:26.646Z,41.45
2019-04-22T05:31:24.377Z,40.78
2019-04-22T05:32:24.638Z,40.03
2019-04-22T05:33:33.211Z,40.03
2019-04-22T05:35:26.690Z,40.03
2019-04-22T05:36:28.330Z,39.28
2019-04-22T05:37:27.527Z,39.28
2019-04-22T05:38:33.152Z,38.60
2019-04-22T05:39:21.301Z,38.97
2019-04-22T05:41:32.351Z,40.30
2019-04-22T05:42:37.505Z,40.58
2019-04-22T05:43:27.369Z,41.99
2019-04-22T05:44:29.582Z,43.60
2019-04-22T05:45:29.524Z,45.01
2019-04-22T05:46:24.900Z,46.05
2019-04-22T05:47:25.854Z,45.98
2019-04-22T05:48:25.788Z,45.21
2019-04-22T05:49:27.173Z,45.04
2019-04-22T05:50:23.916Z,42.05
2019-04-22T05:51:31.392Z,38.91
2019-04-22T05:52:26.663Z,39.28
2019-04-22T05:53:30.894Z,39.20
2019-04-22T05:54:27.452Z,37.95
2019-04-22T05:55:30.432Z,38.56
2019-04-22T05:56:34.742Z,40.66
2019-04-22T05:57:24.727Z,40.93
2019-04-22T05:58:26.987Z,42.93
2019-04-22T05:59:28.796Z,43.21
2019-04-22T06:00:37.061Z,44.08
2019-04-22T06:02:31.392Z,45.00
2019-04-22T06:03:32.519Z,45.67
2019-04-22T06:04:25.818Z,45.78
2019-04-22T06:05:24.979Z,44.38
2019-04-22T06:06:22.730Z,41.56
2019-04-22T06:07:29.465Z,39.29
2019-04-22T06:08:23.255Z,37.56
2019-04-22T06:09:47.195Z,37.46
2019-04-22T06:10:26.087Z,36.73
2019-04-22T06:11:28.435Z,36.06
2019-04-22T06:12:23.466Z,36.65
2019-04-22T06:13:18.137Z,36.54
2019-04-22T06:14:20.104Z,36.33
2019-04-22T06:15:24.116Z,36.61
2019-04-22T06:16:25.937Z,36.43
2019-04-22T06:17:24.472Z,37.27
2019-04-22T06:18:27.070Z,37.29
2019-04-22T06:19:24.828Z,37.19
2019-04-22T06:20:21.949Z,36.52
2019-04-22T06:21:28.170Z,37.45
2019-04-22T06:25:47.882Z,44.59
2019-04-22T06:27:30.803Z,45.45
2019-04-22T06:28:35.274Z,45.81
2019-04-22T06:29:26.712Z,46.36
2019-04-22T06:30:42.602Z,47.51
2019-04-22T06:31:37.308Z,48.75
2019-04-22T06:33:30.217Z,49.11
2019-04-22T06:34:30.582Z,48.57
2019-04-22T06:35:34.150Z,48.38
2019-04-22T06:36:29.293Z,48.75
2019-04-22T06:37:24.843Z,48.16
2019-04-22T06:39:29.473Z,50.17
2019-04-22T06:40:27.441Z,50.81
2019-04-22T06:41:51.670Z,50.84
2019-04-22T06:42:28.403Z,49.50
2019-04-22T06:43:30.132Z,49.79
2019-04-22T06:45:48.874Z,50.07
2019-04-22T06:46:28.498Z,49.88
2019-04-22T06:47:40.076Z,49.79
2019-04-22T06:48:24.047Z,50.24
2019-04-22T06:49:33.434Z,50.17
2019-04-22T06:50:32.210Z,50.05
2019-04-22T06:51:30.950Z,50.15
2019-04-22T06:52:22.661Z,51.01
2019-04-22T06:53:32.747Z,51.20
2019-04-22T06:54:28.404Z,51.10
2019-04-22T06:55:29.789Z,51.32
2019-04-22T06:56:22.378Z,50.74
2019-04-22T06:57:27.257Z,51.68
2019-04-22T06:58:20.231Z,51.58
2019-04-22T06:59:30.134Z,51.77
2019-04-22T07:00:24.587Z,51.01
2019-04-22T07:02:32.089Z,51.77
2019-04-22T07:04:22.495Z,51.68
2019-04-22T07:05:29.726Z,51.20
2019-04-22T07:06:35.384Z,51.87
2019-04-22T07:07:23.774Z,52.25
2019-04-22T07:08:59.510Z,53.02
2019-04-22T07:09:42.761Z,53.02
2019-04-22T07:10:40.463Z,52.83
2019-04-22T07:11:23.744Z,53.11
2019-04-22T07:13:27.776Z,53.02
2019-04-22T07:14:22.473Z,52.83
2019-04-22T07:15:44.237Z,52.92
2019-04-22T07:17:39.304Z,53.49
2019-04-22T07:18:31.203Z,52.92
2019-04-22T07:19:27.885Z,53.49
2019-04-22T07:21:29.305Z,53.69
2019-04-22T07:22:27.819Z,53.52
2019-04-22T07:24:40.679Z,53.14
2019-04-22T07:25:23.444Z,53.81
2019-04-22T07:26:29.197Z,52.83
2019-04-22T07:27:40.416Z,53.42
2019-04-22T07:28:31.984Z,53.69
2019-04-22T07:30:22.239Z,52.83
2019-04-22T07:31:15.815Z,53.11
2019-04-22T07:34:31.073Z,53.52
2019-04-22T07:35:28.872Z,54.19
2019-04-22T07:36:52.415Z,52.75
2019-04-22T07:37:31.732Z,53.14
2019-04-22T07:38:28.291Z,53.71
2019-04-22T07:40:32.473Z,53.55
2019-04-22T07:41:28.768Z,53.81
2019-04-22T07:42:24.606Z,53.26
2019-04-22T07:44:30.937Z,51.82
2019-04-22T07:45:26.643Z,53.64
2019-04-22T07:46:28.708Z,54.32
2019-04-22T07:47:38.403Z,52.69
2019-04-22T07:48:33.937Z,53.07
2019-04-22T07:49:26.753Z,52.20
2019-04-22T07:50:39.506Z,52.40
2019-04-22T07:51:28.257Z,53.07
2019-04-22T07:52:22.990Z,53.09
2019-04-22T07:53:21.877Z,53.48
2019-04-22T07:54:25.839Z,52.81
2019-04-22T07:55:24.426Z,51.75
2019-04-22T07:56:24.280Z,52.62
2019-04-22T07:57:27.777Z,53.48
2019-04-22T07:58:25.734Z,52.14
2019-04-22T08:00:23.086Z,53.22
2019-04-22T08:01:26.674Z,51.85
2019-04-22T08:02:26.438Z,52.93
2019-04-22T08:03:32.347Z,53.50
2019-04-22T08:04:35.936Z,53.60
2019-04-22T08:05:30.382Z,52.83
2019-04-22T08:06:23.606Z,51.87
2019-04-22T08:07:24.100Z,51.59
2019-04-22T08:08:25.771Z,51.40
2019-04-22T08:09:33.572Z,51.97
2019-04-22T08:10:29.843Z,51.97
2019-04-22T08:12:29.647Z,52.26
2019-04-22T08:13:24.770Z,51.97
2019-04-22T08:14:32.909Z,51.42
2019-04-22T08:15:27.985Z,51.01
2019-04-22T08:16:23.571Z,51.90
2019-04-22T08:17:44.807Z,52.19
2019-04-22T08:18:28.367Z,51.23
2019-04-22T08:21:22.354Z,51.23
2019-04-22T08:22:21.428Z,51.90
2019-04-22T08:24:29.287Z,52.28
2019-04-22T08:25:29.732Z,53.05
2019-04-22T08:26:27.500Z,52.31
2019-04-22T08:27:25.322Z,52.22
2019-04-22T08:28:31.984Z,51.16
2019-04-22T08:29:32.217Z,52.09
2019-04-22T08:30:28.623Z,51.16
2019-04-22T08:31:28.298Z,50.10
2019-04-22T08:32:28.411Z,50.39
2019-04-22T08:33:29.369Z,50.39
2019-04-22T08:34:27.448Z,51.45
2019-04-22T08:35:29.360Z,50.96
2019-04-22T08:36:26.333Z,51.93
2019-04-22T08:38:36.801Z,49.15
2019-04-22T08:39:36.180Z,49.24
2019-04-22T08:40:28.835Z,50.13
2019-04-22T08:41:33.112Z,50.51
2019-04-22T08:42:34.705Z,48.30
2019-04-22T08:43:30.767Z,48.40
2019-04-22T08:44:39.148Z,48.40
2019-04-22T08:45:33.380Z,49.36
2019-04-22T08:46:35.198Z,49.17
2019-04-22T08:47:42.265Z,49.26
2019-04-22T08:48:24.852Z,49.65
2019-04-22T08:49:30.666Z,48.97
2019-04-22T08:50:39.517Z,47.56
2019-04-22T08:51:35.630Z,47.34
2019-04-22T08:52:27.537Z,48.69
2019-04-22T08:53:26.458Z,48.61
2019-04-22T08:54:26.016Z,49.19
2019-04-22T08:55:29.289Z,48.93
2019-04-22T08:56:43.692Z,44.89
2019-04-22T08:57:35.011Z,45.25
2019-04-22T08:59:22.223Z,46.79
2019-04-22T09:00:34.333Z,46.59
2019-04-22T09:02:25.871Z,44.72
2019-04-22T09:03:24.428Z,41.43
2019-04-22T09:04:16.327Z,41.45
2019-04-22T09:05:42.417Z,41.45
2019-04-22T09:07:36.933Z,41.06
2019-04-22T09:08:26.296Z,42.49
2019-04-22T09:09:27.231Z,42.30
2019-04-22T09:10:24.165Z,41.35
2019-04-22T09:11:28.442Z,39.72
2019-04-22T09:12:34.803Z,39.43
2019-04-22T09:13:30.167Z,40.11
2019-04-22T09:14:32.431Z,39.53
2019-04-22T09:15:27.853Z,38.49
2019-04-22T09:16:34.734Z,38.47
2019-04-22T09:17:35.088Z,38.49
2019-04-22T09:18:32.927Z,39.06
2019-04-22T09:19:24.072Z,39.26
2019-04-22T09:20:26.014Z,39.74
2019-04-22T09:21:38.878Z,39.36
2019-04-22T09:22:21.838Z,40.61
2019-04-22T09:24:23.312Z,40.80
2019-04-22T09:25:24.134Z,39.26
2019-04-22T09:26:30.647Z,40.51
2019-04-22T09:28:24.475Z,40.12
2019-04-22T09:29:32.602Z,38.59
2019-04-22T09:30:30.594Z,39.36
2019-04-22T09:31:23.438Z,38.59
2019-04-22T09:32:26.443Z,39.33
2019-04-22T09:33:28.936Z,39.43
2019-04-22T09:34:29.316Z,39.28
2019-04-22T09:35:26.589Z,38.79
2019-04-22T09:36:29.556Z,39.26
2019-04-22T09:37:28.956Z,39.36
2019-04-22T09:39:31.263Z,39.45
2019-04-22T09:40:23.694Z,38.70
2019-04-22T09:41:27.199Z,39.76
2019-04-22T09:42:24.701Z,39.09
2019-04-22T09:43:31.601Z,39.45
2019-04-22T09:44:29.838Z,39.28
2019-04-22T09:45:21.373Z,38.41
2019-04-22T09:46:30.771Z,38.22
2019-04-22T09:47:24.918Z,37.45
2019-04-22T09:48:29.742Z,37.08
2019-04-22T09:49:30.743Z,36.68
2019-04-22T09:50:33.271Z,37.56
2019-04-22T09:51:25.313Z,37.76
2019-04-22T09:52:22.481Z,37.48
2019-04-22T09:53:30.080Z,37.58
2019-04-22T09:54:29.690Z,39.59
2019-04-22T09:55:26.616Z,37.85
2019-04-22T09:56:23.833Z,37.66
2019-04-22T09:57:24.971Z,37.37
2019-04-22T09:58:26.549Z,36.89
2019-04-22T09:59:30.067Z,36.51
2019-04-22T10:00:22.362Z,36.33
2019-04-22T10:02:34.465Z,36.60
2019-04-22T10:03:34.219Z,37.77
2019-04-22T10:04:27.290Z,36.43
2019-04-22T10:05:28.534Z,36.33
2019-04-22T10:06:38.145Z,36.52
2019-04-22T10:07:27.226Z,36.52
2019-04-22T10:08:33.373Z,36.04
2019-04-22T10:09:42.621Z,36.43
2019-04-22T10:10:22.169Z,37.48
2019-04-22T10:12:28.040Z,37.01
2019-04-22T10:13:32.709Z,37.01
2019-04-22T10:14:29.057Z,37.58
2019-04-22T10:15:26.749Z,37.48
2019-04-22T10:16:31.399Z,37.87
2019-04-22T10:17:26.056Z,39.12
2019-04-22T10:18:26.243Z,39.99
2019-04-22T10:19:26.348Z,40.16
2019-04-22T10:20:28.161Z,39.79
2019-04-22T10:21:35.298Z,39.31
2019-04-22T10:22:49.966Z,39.31
2019-04-22T10:23:25.041Z,38.54
2019-04-22T10:24:18.860Z,38.66
2019-04-22T10:25:25.032Z,37.70
2019-04-22T10:26:30.073Z,38.18
2019-04-22T10:27:26.941Z,37.50
2019-04-22T10:28:35.676Z,37.96
2019-04-22T10:29:24.620Z,37.41
2019-04-22T10:30:37.166Z,38.08
2019-04-22T10:31:31.011Z,38.76
2019-04-22T10:32:27.976Z,38.18
2019-04-22T10:33:24.003Z,37.12
2019-04-22T10:34:11.756Z,36.94
2019-04-22T10:35:04.983Z,35.69
2019-04-22T10:35:59.476Z,36.36
2019-04-22T10:37:04.351Z,36.17
2019-04-22T10:38:00.673Z,36.17
2019-04-22T10:39:00.118Z,36.85
2019-04-22T10:40:03.952Z,36.65
2019-04-22T10:41:00.838Z,36.67
2019-04-22T10:41:59.488Z,37.73
2019-04-22T10:42:59.497Z,37.91
2019-04-22T10:43:59.513Z,38.21
2019-04-22T10:45:00.975Z,37.23
2019-04-22T10:45:59.876Z,38.02
2019-04-22T10:47:00.072Z,37.04
2019-04-22T10:48:01.426Z,34.74
2019-04-22T10:49:00.026Z,34.55
2019-04-22T10:50:00.668Z,34.45
2019-04-22T10:51:00.918Z,33.39
2019-04-22T10:52:00.421Z,33.28
2019-04-22T10:52:59.530Z,33.09
2019-04-22T10:53:59.760Z,33.48
2019-04-22T10:54:59.538Z,33.28
2019-04-22T10:56:00.850Z,33.37
2019-04-22T10:57:00.753Z,33.39
2019-04-22T10:57:59.537Z,33.57
2019-04-22T10:59:00.528Z,33.10
2019-04-22T11:00:00.697Z,33.20
2019-04-22T11:01:00.198Z,33.48
2019-04-22T11:01:59.553Z,33.78
2019-04-22T11:03:00.096Z,33.48
2019-04-22T11:03:59.662Z,33.20
2019-04-22T11:04:59.561Z,32.14
2019-04-22T11:06:01.134Z,31.94
2019-04-22T11:07:04.583Z,32.43
2019-04-22T11:08:04.893Z,32.81
2019-04-22T11:09:04.155Z,33.58
2019-04-22T11:10:17.860Z,33.50
2019-04-22T11:11:14.101Z,33.22
2019-04-22T11:12:06.467Z,33.31
2019-04-22T11:13:00.841Z,32.15
2019-04-22T11:14:00.098Z,31.67
2019-04-22T11:15:00.119Z,31.18
2019-04-22T11:16:00.537Z,32.06
2019-04-22T11:17:02.214Z,32.24
2019-04-22T11:17:59.796Z,31.57
2019-04-22T11:18:59.608Z,31.40
2019-04-22T11:19:59.610Z,31.49
2019-04-22T11:20:59.851Z,31.68
2019-04-22T11:22:07.709Z,32.44
2019-04-22T11:23:00.606Z,32.84
2019-04-22T11:24:00.715Z,32.36
2019-04-22T11:25:01.217Z,32.73
2019-04-22T11:25:59.734Z,33.42
2019-04-22T11:27:01.021Z,32.75
2019-04-22T11:28:00.003Z,31.59
2019-04-22T11:28:59.636Z,31.30
2019-04-22T11:29:59.659Z,31.20
2019-04-22T11:31:00.794Z,31.40
2019-04-22T11:32:00.136Z,31.49
2019-04-22T11:33:00.444Z,30.72
2019-04-22T11:34:00.787Z,31.99
2019-04-22T11:34:59.660Z,31.31
2019-04-22T11:35:59.971Z,31.49
2019-04-22T11:37:00.927Z,32.28
2019-04-22T11:38:00.979Z,31.22
2019-04-22T11:39:02.511Z,32.39
2019-04-22T11:40:06.896Z,32.49
2019-04-22T11:41:01.401Z,32.21
2019-04-22T11:42:00.379Z,30.57
2019-04-22T11:42:59.988Z,29.20
2019-04-22T11:44:01.187Z,29.69
2019-04-22T11:44:59.703Z,30.46
2019-04-22T11:45:59.717Z,29.50
2019-04-22T11:47:01.417Z,29.60
2019-04-22T11:47:59.719Z,30.28
2019-04-22T11:49:00.274Z,29.32
2019-04-22T11:49:59.802Z,29.10
2019-04-22T11:51:00.124Z,30.55
2019-04-22T11:52:00.990Z,29.30
2019-04-22T11:53:00.748Z,29.49
2019-04-22T11:54:00.870Z,29.49
2019-04-22T11:55:01.078Z,29.90
2019-04-22T11:56:00.589Z,28.33
2019-04-22T11:57:01.011Z,28.33
2019-04-22T11:58:00.942Z,29.39
2019-04-22T11:59:00.659Z,28.81
2019-04-22T12:00:00.996Z,29.10
2019-04-22T12:01:00.988Z,29.22
2019-04-22T12:02:00.641Z,28.23
2019-04-22T12:03:00.869Z,28.62
2019-04-22T12:03:59.980Z,29.10
2019-04-22T12:04:59.791Z,29.78
2019-04-22T12:05:59.883Z,29.39
2019-04-22T12:07:00.121Z,29.97
2019-04-22T12:07:59.817Z,30.08
2019-04-22T12:08:59.808Z,30.39
2019-04-22T12:10:00.936Z,30.18
2019-04-22T12:11:03.614Z,30.28
2019-04-22T12:12:00.060Z,30.78
2019-04-22T12:12:59.962Z,30.18
2019-04-22T12:14:00.218Z,30.28
2019-04-22T12:15:00.754Z,30.18
2019-04-22T12:16:00.946Z,29.99
2019-04-22T12:16:59.852Z,30.86
2019-04-22T12:18:01.405Z,30.66
2019-04-22T12:19:00.884Z,31.34
2019-04-22T12:20:00.212Z,30.94
2019-04-22T12:21:01.238Z,31.52
2019-04-22T12:22:00.684Z,31.15
2019-04-22T12:23:01.147Z,30.47
2019-04-22T12:24:01.132Z,30.38
2019-04-22T12:25:00.614Z,29.99
2019-04-22T12:26:05.818Z,30.38
2019-04-22T12:27:00.315Z,29.50
2019-04-22T12:28:01.104Z,30.47
2019-04-22T12:28:59.904Z,30.18
2019-04-22T12:30:00.839Z,31.15
2019-04-22T12:30:59.919Z,30.66
2019-04-22T12:31:59.929Z,32.02
2019-04-22T12:33:00.210Z,30.47
2019-04-22T12:34:01.287Z,30.20
2019-04-22T12:34:59.949Z,30.58
2019-04-22T12:36:00.419Z,29.22
2019-04-22T12:37:00.472Z,29.02
2019-04-22T12:38:06.125Z,28.64
2019-04-22T12:38:59.948Z,29.12
2019-04-22T12:40:00.393Z,29.50
2019-04-22T12:41:04.378Z,29.43
2019-04-22T12:42:00.335Z,29.71
2019-04-22T12:43:04.163Z,30.78
2019-04-22T12:44:00.980Z,30.60
2019-04-22T12:45:00.445Z,29.71
2019-04-22T12:46:00.478Z,29.92
2019-04-22T12:47:01.748Z,28.85
2019-04-22T12:48:00.209Z,30.10
2019-04-22T12:49:00.326Z,29.13
2019-04-22T12:50:08.994Z,29.23
2019-04-22T12:51:00.903Z,29.81
2019-04-22T12:52:01.139Z,31.65
2019-04-22T12:53:06.822Z,31.46
2019-04-22T12:54:01.359Z,30.20
2019-04-22T12:55:01.321Z,30.10
2019-04-22T12:56:01.244Z,30.29
2019-04-22T12:57:00.035Z,29.63
2019-04-22T12:58:01.296Z,29.52
2019-04-22T12:59:01.350Z,30.31
2019-04-22T13:00:01.458Z,30.29
2019-04-22T13:01:01.235Z,30.29
2019-04-22T13:02:00.673Z,30.49
2019-04-22T13:03:01.050Z,29.43
2019-04-22T13:04:06.932Z,30.00
2019-04-22T13:05:00.668Z,31.16
2019-04-22T13:06:01.486Z,31.26
2019-04-22T13:07:00.089Z,31.65
2019-04-22T13:08:00.234Z,31.26
2019-04-22T13:09:00.355Z,30.49
2019-04-22T13:10:01.437Z,30.29
2019-04-22T13:11:06.800Z,29.23
2019-04-22T13:12:01.230Z,29.81
2019-04-22T13:13:00.867Z,30.10
2019-04-22T13:14:00.935Z,30.39
2019-04-22T13:15:01.499Z,30.00
2019-04-22T13:16:00.144Z,30.20
2019-04-22T13:17:00.136Z,30.10
2019-04-22T13:18:10.634Z,30.39
2019-04-22T13:19:05.714Z,30.68
2019-04-22T13:20:00.449Z,30.88
2019-04-22T13:21:00.441Z,31.07
2019-04-22T13:22:00.951Z,30.78
2019-04-22T13:23:00.167Z,30.88
2019-04-22T13:24:00.177Z,30.78
2019-04-22T13:25:01.984Z,30.20
2019-04-22T13:26:00.944Z,30.88
2019-04-22T13:27:01.235Z,29.91
2019-04-22T13:28:00.983Z,30.20
2019-04-22T13:29:01.048Z,30.10
2019-04-22T13:30:08.259Z,30.29
2019-04-22T13:32:04.934Z,30.21
2019-04-22T13:33:05.148Z,30.99
2019-04-22T13:35:08.861Z,30.21
2019-04-22T13:36:08.198Z,30.69
2019-04-22T13:38:12.956Z,30.21
2019-04-22T13:39:13.255Z,30.11
2019-04-22T13:41:26.428Z,29.92
2019-04-22T13:42:19.953Z,29.34
2019-04-22T13:44:20.845Z,29.53
2019-04-22T13:45:20.195Z,30.11
2019-04-22T13:46:20.192Z,28.96
2019-04-22T13:47:35.048Z,28.86
2019-04-22T13:48:38.794Z,30.11
2019-04-22T13:49:51.378Z,29.34
2019-04-22T13:53:10.618Z,29.15
2019-04-22T13:55:45.337Z,29.15
2019-04-22T13:56:46.303Z,28.66
2019-04-22T13:57:41.417Z,28.47
2019-04-22T13:58:35.469Z,29.46
2019-04-22T13:59:30.158Z,29.16
2019-04-22T14:00:20.542Z,28.49
2019-04-22T14:01:20.548Z,28.38
2019-04-22T14:02:20.272Z,28.47
2019-04-22T14:03:20.531Z,28.38
2019-04-22T14:04:20.587Z,28.38
2019-04-22T14:05:20.290Z,28.18
2019-04-22T14:06:20.657Z,28.18
2019-04-22T14:07:20.892Z,28.86
2019-04-22T14:08:20.302Z,28.08
2019-04-22T14:09:20.470Z,28.08
2019-04-22T14:10:20.650Z,28.97
2019-04-22T14:11:28.711Z,28.58
2019-04-22T14:12:21.719Z,28.00
2019-04-22T14:13:21.407Z,28.29
2019-04-22T14:14:22.014Z,28.39
2019-04-22T14:15:20.341Z,28.29
2019-04-22T14:16:20.346Z,27.32
2019-04-22T14:17:20.931Z,26.92
2019-04-22T14:18:21.122Z,27.98
2019-04-22T14:19:20.428Z,27.11
2019-04-22T14:20:21.558Z,27.22
2019-04-22T14:21:21.063Z,27.31
2019-04-22T14:22:20.380Z,28.28
2019-04-22T14:23:20.558Z,27.31
2019-04-22T14:24:21.606Z,27.01
2019-04-22T14:25:20.756Z,27.98
2019-04-22T14:26:20.400Z,27.60
2019-04-22T14:27:32.038Z,28.47
2019-04-22T14:28:22.962Z,28.38
2019-04-22T14:29:21.753Z,27.60
2019-04-22T14:30:20.865Z,27.60
2019-04-22T14:31:20.484Z,27.79
2019-04-22T14:32:27.050Z,26.90
2019-04-22T14:33:20.482Z,27.01
2019-04-22T14:34:20.785Z,27.50
2019-04-22T14:35:20.862Z,27.00
2019-04-22T14:36:21.382Z,26.90
2019-04-22T14:37:20.556Z,27.21
2019-04-22T14:38:21.729Z,27.58
2019-04-22T14:39:21.872Z,27.00
2019-04-22T14:40:22.522Z,27.00
2019-04-22T14:41:35.839Z,27.21
2019-04-22T14:42:39.530Z,27.00
2019-04-22T14:43:52.707Z,27.10
2019-04-22T14:45:15.241Z,27.10
2019-04-22T14:45:53.428Z,27.20
2019-04-22T14:46:53.486Z,26.62
2019-04-22T14:47:49.357Z,26.32
2019-04-22T14:48:47.715Z,26.23
2019-04-22T14:49:42.135Z,26.72
2019-04-22T14:50:42.391Z,26.23
2019-04-22T14:51:41.827Z,26.23
2019-04-22T14:52:45.977Z,27.00
2019-04-22T14:53:41.147Z,27.00
2019-04-22T14:54:34.840Z,26.90
2019-04-22T14:55:25.075Z,26.81